createdAt,value
2018-04-14T00:01:23.729Z,19.20
2018-04-14T00:03:51.980Z,18.37
2018-04-14T00:06:20.271Z,23.83
2018-04-14T00:08:48.525Z,18.17
2018-04-14T00:11:17.571Z,20.63
2018-04-14T00:13:46.166Z,20.87
2018-04-14T00:16:14.421Z,19.00
2018-04-14T00:18:42.684Z,20.90
2018-04-14T00:21:10.969Z,21.73
2018-04-14T00:23:39.221Z,21.60
2018-04-14T00:26:08.243Z,22.13
2018-04-14T00:28:36.526Z,27.63
2018-04-14T00:31:04.776Z,24.47
2018-04-14T00:33:33.049Z,24.10
2018-04-14T00:36:01.764Z,24.40
2018-04-14T00:38:30.029Z,32.27
2018-04-14T00:40:58.286Z,24.23
2018-04-14T00:43:26.894Z,25.80
2018-04-14T00:45:55.150Z,24.23
2018-04-14T00:48:23.409Z,29.70
2018-04-14T00:50:52.467Z,26.50
2018-04-14T00:53:32.429Z,25.70
2018-04-14T00:56:01.094Z,25.93
2018-04-14T00:58:29.350Z,25.47
2018-04-14T01:00:57.660Z,29.43
2018-04-14T01:03:25.920Z,27.97
2018-04-14T01:05:54.177Z,23.47
2018-04-14T01:08:22.432Z,23.73
2018-04-14T01:10:51.482Z,25.03
2018-04-14T01:13:20.498Z,25.47
2018-04-14T01:15:48.736Z,26.67
2018-04-14T01:18:17.424Z,28.10
2018-04-14T01:20:45.672Z,28.23
2018-04-14T01:23:13.916Z,25.10
2018-04-14T01:25:42.189Z,24.20
2018-04-14T01:28:10.443Z,24.80
2018-04-14T01:30:38.692Z,28.50
2018-04-14T01:33:06.969Z,26.87
2018-04-14T01:35:35.216Z,24.00
2018-04-14T01:38:03.469Z,24.57
2018-04-14T01:40:32.220Z,23.13
2018-04-14T01:43:00.472Z,28.00
2018-04-14T01:45:29.248Z,26.33
2018-04-14T01:47:58.284Z,23.80
2018-04-14T01:50:26.528Z,26.80
2018-04-14T01:52:54.780Z,27.10
2018-04-14T01:55:23.061Z,23.50
2018-04-14T01:57:52.081Z,27.37
2018-04-14T02:00:20.328Z,23.37
2018-04-14T02:02:48.791Z,25.37
2018-04-14T02:05:17.036Z,22.20
2018-04-14T02:07:45.288Z,23.93
2018-04-14T02:10:13.565Z,21.20
2018-04-14T02:12:41.821Z,29.00
2018-04-14T02:15:10.060Z,27.30
2018-04-14T02:17:38.336Z,24.60
2018-04-14T02:20:06.584Z,22.40
2018-04-14T02:22:34.828Z,20.73
2018-04-14T02:25:03.979Z,21.17
2018-04-14T02:27:32.231Z,20.20
2018-04-14T02:30:00.480Z,18.80
2018-04-14T02:32:28.761Z,20.23
2018-04-14T02:34:57.772Z,18.17
2018-04-14T02:37:26.016Z,17.80
2018-04-14T02:39:54.293Z,17.63
2018-04-14T02:42:23.317Z,18.10
2018-04-14T02:44:51.577Z,19.47
2018-04-14T02:47:21.003Z,21.97
2018-04-14T02:49:49.257Z,20.20
2018-04-14T02:52:18.276Z,23.83
2018-04-14T02:54:46.549Z,19.53
2018-04-14T02:57:14.797Z,21.53
2018-04-14T02:59:43.048Z,26.50
2018-04-14T03:02:11.321Z,20.53
2018-04-14T03:04:39.575Z,19.37
2018-04-14T03:07:07.835Z,18.77
2018-04-14T03:09:36.280Z,20.70
2018-04-14T03:12:05.305Z,18.67
2018-04-14T03:14:33.548Z,19.93
2018-04-14T03:17:01.827Z,18.90
2018-04-14T03:19:30.072Z,19.93
2018-04-14T03:21:58.327Z,19.30
2018-04-14T03:24:26.588Z,18.87
2018-04-14T03:26:54.909Z,19.80
2018-04-14T03:29:23.165Z,20.20
2018-04-14T03:31:51.501Z,21.77
2018-04-14T03:34:19.746Z,22.00
2018-04-14T03:36:47.999Z,20.13
2018-04-14T03:39:16.268Z,21.13
2018-04-14T03:41:44.522Z,21.33
2018-04-14T03:44:12.773Z,22.70
2018-04-14T03:46:41.816Z,20.83
2018-04-14T03:49:10.190Z,20.70
2018-04-14T03:51:38.432Z,20.10
2018-04-14T03:54:07.575Z,20.60
2018-04-14T03:56:35.825Z,19.60
2018-04-14T03:59:04.077Z,19.13
2018-04-14T04:01:32.548Z,19.17
2018-04-14T04:04:01.577Z,19.43
2018-04-14T04:06:29.828Z,20.53
2018-04-14T04:08:58.100Z,20.70
2018-04-14T04:11:27.118Z,19.27
2018-04-14T04:13:55.369Z,22.97
2018-04-14T04:16:24.724Z,22.90
2018-04-14T04:19:04.824Z,21.70
2018-04-14T04:21:45.732Z,22.33
2018-04-14T04:24:25.905Z,21.93
2018-04-14T04:26:54.194Z,20.73
2018-04-14T04:29:22.440Z,24.93
2018-04-14T04:31:50.688Z,19.37
2018-04-14T04:34:19.170Z,21.37
2018-04-14T04:36:47.420Z,18.00
2018-04-14T04:39:15.673Z,18.90
2018-04-14T04:41:43.958Z,17.90
2018-04-14T04:44:12.203Z,21.17
2018-04-14T04:46:40.452Z,21.90
2018-04-14T04:49:08.988Z,20.13
2018-04-14T04:51:37.630Z,17.73
2018-04-14T04:54:06.640Z,20.33
2018-04-14T04:56:35.072Z,20.57
2018-04-14T04:59:03.321Z,16.80
2018-04-14T05:01:31.573Z,18.63
2018-04-14T05:03:59.856Z,21.30
2018-04-14T05:06:28.100Z,17.00
2018-04-14T05:08:56.353Z,17.23
2018-04-14T05:11:24.624Z,17.93
2018-04-14T05:13:52.876Z,18.27
2018-04-14T05:16:21.133Z,21.63
2018-04-14T05:18:49.836Z,19.50
2018-04-14T05:21:18.093Z,20.50
2018-04-14T05:23:46.345Z,18.30
2018-04-14T05:26:15.385Z,16.83
2018-04-14T05:28:43.636Z,18.67
2018-04-14T05:31:11.877Z,16.73
2018-04-14T05:33:40.141Z,16.73
2018-04-14T05:36:08.385Z,16.43
2018-04-14T05:38:36.640Z,17.17
2018-04-14T05:41:05.017Z,19.83
2018-04-14T05:43:33.439Z,20.40
2018-04-14T05:46:01.673Z,17.97
2018-04-14T05:48:30.040Z,19.23
2018-04-14T05:50:59.090Z,18.00
2018-04-14T05:53:27.539Z,18.13
2018-04-14T05:55:55.821Z,19.40
2018-04-14T05:58:24.067Z,22.00
2018-04-14T06:00:52.309Z,17.80
2018-04-14T06:03:20.973Z,18.93
2018-04-14T06:05:49.212Z,20.00
2018-04-14T06:08:17.475Z,18.30
2018-04-14T06:10:45.748Z,17.40
2018-04-14T06:13:14.756Z,18.40
2018-04-14T06:15:42.999Z,17.07
2018-04-14T06:18:11.287Z,17.17
2018-04-14T06:20:39.516Z,16.17
2018-04-14T06:23:07.769Z,15.90
2018-04-14T06:25:36.711Z,15.90
2018-04-14T06:28:04.952Z,12.53
2018-04-14T06:30:33.205Z,13.40
2018-04-14T06:33:02.244Z,14.53
2018-04-14T06:35:30.500Z,9.93
2018-04-14T06:37:58.748Z,10.83
2018-04-14T06:40:27.026Z,10.07
2018-04-14T06:42:55.274Z,11.43
2018-04-14T06:45:23.525Z,9.97
2018-04-14T06:47:51.895Z,9.50
2018-04-14T06:50:20.149Z,11.03
2018-04-14T06:52:48.412Z,10.53
2018-04-14T06:55:18.118Z,10.37
2018-04-14T06:57:47.276Z,9.47
2018-04-14T07:00:15.521Z,10.03
2018-04-14T07:02:43.799Z,9.50
2018-04-14T07:05:12.049Z,10.33
2018-04-14T07:07:40.292Z,11.37
2018-04-14T07:10:08.705Z,10.20
2018-04-14T07:12:37.720Z,10.23
2018-04-14T07:15:05.963Z,7.80
2018-04-14T07:17:34.244Z,13.53
2018-04-14T07:20:03.264Z,12.40
2018-04-14T07:22:31.679Z,9.47
2018-04-14T07:24:59.951Z,8.97
2018-04-14T07:27:28.192Z,9.97
2018-04-14T07:29:56.438Z,8.67
2018-04-14T07:32:24.951Z,8.80
2018-04-14T07:34:53.159Z,9.10
2018-04-14T07:37:21.400Z,9.47
2018-04-14T07:39:49.681Z,12.17
2018-04-14T07:42:17.948Z,12.33
2018-04-14T07:44:46.197Z,10.80
2018-04-14T07:47:14.470Z,9.90
2018-04-14T07:49:42.711Z,9.70
2018-04-14T07:52:10.961Z,8.93
2018-04-14T07:54:39.281Z,8.37
2018-04-14T07:57:07.908Z,8.40
2018-04-14T07:59:36.933Z,8.50
2018-04-14T08:02:05.206Z,7.70
2018-04-14T08:04:33.454Z,11.83
2018-04-14T08:07:02.472Z,17.23
2018-04-14T08:09:30.748Z,8.63
2018-04-14T08:11:59.269Z,8.40
2018-04-14T08:14:28.236Z,7.67
2018-04-14T08:16:56.561Z,6.90
2018-04-14T08:19:24.804Z,7.57
2018-04-14T08:21:53.088Z,8.63
2018-04-14T08:24:21.340Z,7.47
2018-04-14T08:26:49.589Z,10.27
2018-04-14T08:29:18.607Z,7.70
2018-04-14T08:31:48.900Z,8.07
2018-04-14T08:34:17.947Z,7.23
2018-04-14T08:36:46.240Z,5.40
2018-04-14T08:39:14.720Z,11.83
2018-04-14T08:41:42.957Z,3.87
2018-04-14T08:44:11.389Z,4.97
2018-04-14T08:46:39.901Z,5.20
2018-04-14T08:49:08.152Z,8.13
2018-04-14T08:51:36.381Z,6.20
2018-04-14T08:54:04.649Z,5.70
2018-04-14T08:56:32.900Z,7.93
2018-04-14T08:59:02.321Z,5.10
2018-04-14T09:01:30.920Z,4.77
2018-04-14T09:03:59.537Z,3.47
2018-04-14T09:06:27.760Z,4.10
2018-04-14T09:08:56.020Z,7.47
2018-04-14T09:11:25.033Z,4.57
2018-04-14T09:13:53.273Z,7.63
2018-04-14T09:16:22.037Z,7.33
2018-04-14T09:18:50.263Z,2.33
2018-04-14T09:21:19.282Z,2.07
2018-04-14T09:23:47.999Z,4.07
2018-04-14T09:26:16.232Z,4.17
2018-04-14T09:28:44.856Z,2.60
2018-04-14T09:31:13.105Z,2.03
2018-04-14T09:33:41.421Z,3.47
2018-04-14T09:36:09.688Z,3.50
2018-04-14T09:38:37.964Z,1.97
2018-04-14T09:41:06.205Z,5.30
2018-04-14T09:43:34.464Z,2.27
2018-04-14T09:46:03.561Z,3.10
2018-04-14T09:48:32.008Z,1.63
2018-04-14T09:51:00.575Z,2.60
2018-04-14T09:53:28.824Z,2.10
2018-04-14T09:55:57.075Z,10.73
2018-04-14T09:58:26.088Z,2.30
2018-04-14T10:01:00.580Z,6.53
2018-04-14T10:03:29.233Z,3.33
2018-04-14T10:05:57.469Z,2.20
2018-04-14T10:08:25.820Z,1.70
2018-04-14T10:10:54.173Z,2.33
2018-04-14T10:13:22.411Z,1.90
2018-04-14T10:15:50.681Z,1.90
2018-04-14T10:18:19.140Z,1.57
2018-04-14T10:20:47.579Z,1.70
2018-04-14T10:23:15.829Z,3.03
2018-04-14T10:25:44.068Z,2.00
2018-04-14T10:28:13.084Z,1.73
2018-04-14T10:30:41.525Z,1.73
2018-04-14T10:33:10.396Z,1.90
2018-04-14T10:35:38.636Z,2.23
2018-04-14T10:38:06.944Z,1.40
2018-04-14T10:40:35.188Z,1.97
2018-04-14T10:43:03.437Z,3.00
2018-04-14T10:45:32.469Z,1.40
2018-04-14T10:48:00.786Z,2.30
2018-04-14T10:50:29.193Z,1.27
2018-04-14T10:52:58.353Z,1.43
2018-04-14T10:55:26.735Z,1.60
2018-04-14T10:57:54.972Z,2.20
2018-04-14T11:00:23.352Z,3.23
2018-04-14T11:02:52.292Z,1.47
2018-04-14T11:05:20.705Z,1.30
2018-04-14T11:07:49.078Z,1.40
2018-04-14T11:10:18.108Z,1.30
2018-04-14T11:12:46.423Z,1.47
2018-04-14T11:15:14.966Z,1.67
2018-04-14T11:17:43.205Z,1.17
2018-04-14T11:20:12.488Z,5.37
2018-04-14T11:22:41.116Z,1.50
2018-04-14T11:25:09.539Z,3.83
2018-04-14T11:27:38.026Z,1.93
2018-04-14T11:30:06.432Z,1.53
2018-04-14T11:32:34.673Z,2.70
2018-04-14T11:35:03.073Z,6.00
2018-04-14T11:37:31.569Z,2.50
2018-04-14T11:39:59.871Z,1.67
2018-04-14T11:42:29.120Z,1.70
2018-04-14T11:44:57.435Z,1.90
2018-04-14T11:47:25.880Z,6.33
2018-04-14T11:49:54.260Z,1.80
2018-04-14T11:52:22.651Z,9.13
2018-04-14T11:54:51.012Z,4.83
2018-04-14T11:57:19.593Z,1.33
2018-04-14T11:59:48.006Z,1.60
2018-04-14T12:02:16.515Z,1.30
2018-04-14T12:04:44.852Z,4.10
2018-04-14T12:07:13.285Z,1.10
2018-04-14T12:09:41.613Z,0.97
2018-04-14T12:12:09.976Z,1.20
2018-04-14T12:14:38.242Z,2.80
2018-04-14T12:17:06.485Z,2.23
2018-04-14T12:19:34.814Z,1.27
2018-04-14T12:22:03.264Z,3.33
2018-04-14T12:24:31.585Z,1.40
2018-04-14T12:27:00.148Z,2.50
2018-04-14T12:29:29.652Z,4.67
2018-04-14T12:31:59.148Z,2.10
2018-04-14T12:34:27.541Z,3.43
2018-04-14T12:36:55.989Z,1.10
2018-04-14T12:39:24.362Z,1.60
2018-04-14T12:41:52.878Z,1.73
2018-04-14T12:44:21.200Z,1.57
2018-04-14T12:46:50.360Z,2.57
2018-04-14T12:49:18.814Z,2.33
2018-04-14T12:51:47.141Z,1.30
2018-04-14T12:54:16.152Z,1.10
2018-04-14T12:56:44.495Z,1.00
2018-04-14T12:59:12.892Z,1.50
2018-04-14T13:01:42.169Z,2.60
2018-04-14T13:04:11.506Z,2.30
2018-04-14T13:06:39.940Z,1.83
2018-04-14T13:09:09.149Z,5.70
2018-04-14T13:11:37.555Z,1.10
2018-04-14T13:14:06.865Z,1.30
2018-04-14T13:16:35.870Z,1.10
2018-04-14T13:19:04.279Z,1.47
2018-04-14T13:21:32.605Z,1.27
2018-04-14T13:24:01.880Z,1.10
2018-04-14T13:26:31.189Z,1.77
2018-04-14T13:28:59.945Z,1.17
2018-04-14T13:31:28.248Z,1.43
2018-04-14T13:33:56.808Z,1.70
2018-04-14T13:36:25.070Z,3.60
2018-04-14T13:38:53.389Z,2.40
2018-04-14T13:41:21.805Z,1.47
2018-04-14T13:43:50.832Z,1.20
2018-04-14T13:46:20.065Z,1.00
2018-04-14T13:48:48.590Z,1.47
2018-04-14T13:51:16.954Z,1.00
2018-04-14T13:53:46.134Z,1.77
2018-04-14T13:56:14.513Z,0.90
2018-04-14T13:58:44.180Z,2.40
2018-04-14T14:01:12.476Z,1.07
2018-04-14T14:03:40.859Z,1.20
2018-04-14T14:06:09.269Z,1.63
2018-04-14T14:08:38.553Z,0.83
2018-04-14T14:11:06.929Z,0.87
2018-04-14T14:13:35.802Z,2.03
2018-04-14T14:16:04.057Z,0.90
2018-04-14T14:18:34.513Z,0.90
2018-04-14T14:21:02.936Z,1.63
2018-04-14T14:23:31.980Z,0.93
2018-04-14T14:26:00.464Z,1.03
2018-04-14T14:28:28.715Z,2.20
2018-04-14T14:30:57.378Z,1.63
2018-04-14T14:33:27.361Z,0.90
2018-04-14T14:35:55.789Z,1.30
2018-04-14T14:38:24.044Z,1.43
2018-04-14T14:40:53.053Z,0.87
2018-04-14T14:43:21.318Z,2.10
2018-04-14T14:45:49.760Z,0.97
2018-04-14T14:48:18.076Z,1.90
2018-04-14T14:50:46.351Z,1.10
2018-04-14T14:53:15.512Z,1.10
2018-04-14T14:55:43.761Z,1.20
2018-04-14T14:58:13.398Z,1.97
2018-04-14T15:00:42.801Z,1.30
2018-04-14T15:03:11.047Z,0.90
2018-04-14T15:05:39.312Z,0.90
2018-04-14T15:08:07.568Z,1.73
2018-04-14T15:10:36.002Z,0.97
2018-04-14T15:13:04.288Z,5.13
2018-04-14T15:15:32.676Z,4.83
2018-04-14T15:18:01.343Z,1.20
2018-04-14T15:20:29.940Z,2.30
2018-04-14T15:22:58.182Z,1.23
2018-04-14T15:25:26.645Z,2.20
2018-04-14T15:27:55.305Z,2.20
2018-04-14T15:30:24.313Z,0.87
2018-04-14T15:32:52.653Z,1.20
2018-04-14T15:35:21.223Z,6.60
2018-04-14T15:37:49.453Z,2.80
2018-04-14T15:40:18.541Z,1.10
2018-04-14T15:42:47.148Z,2.73
2018-04-14T15:45:16.160Z,0.90
2018-04-14T15:47:44.406Z,2.27
2018-04-14T15:50:12.681Z,1.13
2018-04-14T15:52:40.960Z,1.53
2018-04-14T15:55:09.973Z,1.27
2018-04-14T15:57:38.337Z,6.60
2018-04-14T16:00:07.361Z,1.77
2018-04-14T16:02:35.609Z,1.40
2018-04-14T16:05:04.425Z,1.10
2018-04-14T16:07:32.721Z,5.73
2018-04-14T16:10:01.304Z,1.00
2018-04-14T16:12:29.554Z,2.90
2018-04-14T16:14:57.880Z,1.47
2018-04-14T16:17:26.126Z,1.20
2018-04-14T16:19:54.383Z,1.93
2018-04-14T16:22:22.642Z,2.97
2018-04-14T16:24:51.069Z,2.63
2018-04-14T16:27:19.836Z,1.10
2018-04-14T16:29:48.166Z,2.93
2018-04-14T16:32:17.194Z,3.00
2018-04-14T16:34:47.997Z,4.80
2018-04-14T16:37:17.052Z,1.30
2018-04-14T16:39:45.328Z,1.97
2018-04-14T16:42:14.160Z,5.00
2018-04-14T16:44:42.456Z,2.00
2018-04-14T16:47:11.471Z,1.20
2018-04-14T16:49:39.868Z,1.60
2018-04-14T16:52:08.112Z,2.90
2018-04-14T16:54:36.359Z,3.57
2018-04-14T16:57:04.646Z,1.30
2018-04-14T16:59:33.656Z,2.37
2018-04-14T17:02:01.985Z,2.73
2018-04-14T17:04:30.257Z,1.90
2018-04-14T17:06:58.561Z,2.90
2018-04-14T17:09:26.784Z,1.90
2018-04-14T17:11:55.690Z,4.20
2018-04-14T17:14:23.936Z,3.27
2018-04-14T17:16:52.190Z,4.70
2018-04-14T17:19:20.557Z,1.70
2018-04-14T17:21:50.296Z,2.30
2018-04-14T17:24:18.549Z,2.00
2018-04-14T17:26:46.832Z,1.73
2018-04-14T17:29:15.848Z,2.33
2018-04-14T17:31:44.102Z,3.93
2018-04-14T17:34:13.268Z,5.20
2018-04-14T17:36:41.646Z,5.33
2018-04-14T17:39:09.886Z,2.30
2018-04-14T17:41:38.232Z,2.07
2018-04-14T17:44:07.252Z,4.17
2018-04-14T17:46:35.572Z,4.40
2018-04-14T17:49:03.885Z,5.20
2018-04-14T17:51:32.524Z,2.40
2018-04-14T17:54:04.709Z,4.60
2018-04-14T17:56:33.064Z,2.83
2018-04-14T17:59:01.559Z,6.03
2018-04-14T18:01:29.830Z,2.60
2018-04-14T18:03:58.251Z,3.80
2018-04-14T18:06:27.280Z,3.67
2018-04-14T18:08:55.521Z,6.40
2018-04-14T18:11:23.798Z,3.83
2018-04-14T18:13:53.408Z,8.77
2018-04-14T18:16:21.709Z,5.60
2018-04-14T18:18:50.125Z,3.60
2018-04-14T18:21:18.373Z,3.50
2018-04-14T18:23:46.612Z,2.50
2018-04-14T18:26:14.948Z,2.63
2018-04-14T18:28:43.265Z,4.97
2018-04-14T18:31:12.283Z,3.00
2018-04-14T18:33:40.817Z,3.80
2018-04-14T18:36:09.197Z,4.00
2018-04-14T18:38:37.421Z,6.30
2018-04-14T18:41:06.249Z,2.00
2018-04-14T18:43:34.481Z,3.43
2018-04-14T18:46:02.813Z,6.93
2018-04-14T18:48:31.488Z,3.63
2018-04-14T18:51:02.976Z,4.83
2018-04-14T18:53:33.199Z,3.33
2018-04-14T18:56:03.396Z,3.47
2018-04-14T18:58:31.785Z,5.83
2018-04-14T19:01:00.128Z,4.93
2018-04-14T19:03:28.536Z,4.90
2018-04-14T19:05:56.924Z,4.10
2018-04-14T19:08:26.592Z,6.30
2018-04-14T19:10:54.837Z,4.40
2018-04-14T19:13:23.577Z,7.30
2018-04-14T19:15:52.001Z,11.37
2018-04-14T19:18:21.012Z,7.47
2018-04-14T19:20:49.483Z,8.80
2018-04-14T19:23:17.792Z,5.90
2018-04-14T19:25:46.103Z,9.80
2018-04-14T19:28:14.468Z,9.90
2018-04-14T19:30:42.745Z,11.60
2018-04-14T19:33:10.998Z,7.70
2018-04-14T19:35:39.311Z,4.73
2018-04-14T19:38:07.709Z,8.47
2018-04-14T19:40:36.724Z,7.73
2018-04-14T19:43:05.062Z,6.10
2018-04-14T19:45:33.529Z,10.77
2018-04-14T19:48:01.777Z,8.70
2018-04-14T19:50:30.203Z,23.30
2018-04-14T19:52:58.604Z,8.50
2018-04-14T19:55:28.804Z,6.83
2018-04-14T19:57:57.370Z,11.83
2018-04-14T20:00:25.725Z,13.13
2018-04-14T20:02:55.169Z,11.80
2018-04-14T20:05:23.541Z,8.90
2018-04-14T20:07:52.176Z,6.90
2018-04-14T20:10:20.612Z,10.67
2018-04-14T20:12:48.876Z,9.67
2018-04-14T20:15:17.124Z,9.87
2018-04-14T20:17:45.433Z,8.10
2018-04-14T20:20:13.817Z,13.27
2018-04-14T20:22:43.145Z,13.70
2018-04-14T20:25:12.204Z,14.53
2018-04-14T20:27:40.687Z,10.43
2018-04-14T20:30:09.000Z,8.37
2018-04-14T20:32:39.408Z,8.17
2018-04-14T20:35:07.807Z,10.53
2018-04-14T20:37:36.859Z,10.37
2018-04-14T20:40:05.153Z,9.47
2018-04-14T20:42:33.532Z,7.40
2018-04-14T20:45:01.944Z,13.00
2018-04-14T20:47:31.045Z,7.00
2018-04-14T20:49:59.531Z,10.27
2018-04-14T20:52:27.854Z,12.53
2018-04-14T20:54:56.174Z,12.03
2018-04-14T20:57:24.424Z,8.20
2018-04-14T20:59:53.492Z,8.07
2018-04-14T21:02:21.792Z,13.37
2018-04-14T21:04:50.172Z,19.07
2018-04-14T21:07:19.492Z,8.53
2018-04-14T21:09:49.696Z,12.80
2018-04-14T21:12:18.077Z,18.33
2018-04-14T21:14:46.846Z,8.20
2018-04-14T21:17:15.115Z,10.57
2018-04-14T21:19:43.369Z,8.87
2018-04-14T21:22:11.926Z,8.60
2018-04-14T21:24:40.949Z,14.33
2018-04-14T21:27:09.272Z,9.77
2018-04-14T21:29:37.689Z,9.73
2018-04-14T21:32:06.709Z,8.40
2018-04-14T21:34:35.947Z,10.53
2018-04-14T21:37:04.715Z,11.20
2018-04-14T21:39:34.131Z,9.23
2018-04-14T21:42:03.533Z,7.43
2018-04-14T21:44:31.804Z,8.30
2018-04-14T21:47:00.049Z,14.50
2018-04-14T21:49:28.372Z,15.33
2018-04-14T21:51:56.776Z,11.90
2018-04-14T21:54:26.976Z,7.57
2018-04-14T21:56:55.236Z,5.60
2018-04-14T21:59:23.564Z,12.50
2018-04-14T22:01:53.031Z,7.30
2018-04-14T22:04:21.283Z,11.43
2018-04-14T22:06:49.557Z,12.87
2018-04-14T22:09:17.808Z,5.43
2018-04-14T22:11:46.240Z,8.07
2018-04-14T22:14:26.675Z,9.70
2018-04-14T22:16:55.322Z,12.60
2018-04-14T22:19:24.340Z,10.77
2018-04-14T22:21:52.612Z,7.80
2018-04-14T22:24:20.861Z,11.43
2018-04-14T22:26:49.132Z,16.83
2018-04-14T22:29:17.399Z,28.20
2018-04-14T22:31:45.659Z,21.07
2018-04-14T22:34:13.900Z,13.33
2018-04-14T22:36:42.704Z,12.30
2018-04-14T22:39:10.971Z,9.03
2018-04-14T22:41:39.220Z,10.20
2018-04-14T22:44:07.836Z,12.07
2018-04-14T22:46:36.144Z,9.30
2018-04-14T22:49:04.392Z,9.80
2018-04-14T22:51:32.674Z,18.03
2018-04-14T22:54:00.914Z,18.00
2018-04-14T22:56:29.164Z,13.07
2018-04-14T22:58:57.863Z,8.50
2018-04-14T23:01:26.885Z,11.17
2018-04-14T23:03:55.144Z,7.80
2018-04-14T23:06:24.173Z,8.93
2018-04-14T23:08:52.512Z,7.37
2018-04-14T23:11:21.540Z,7.60
2018-04-14T23:13:49.816Z,5.03
2018-04-14T23:16:18.056Z,10.60
2018-04-14T23:18:46.652Z,5.37
2018-04-14T23:21:15.368Z,5.17
2018-04-14T23:23:43.608Z,4.60
2018-04-14T23:26:11.848Z,10.43
2018-04-14T23:28:40.128Z,12.73
2018-04-14T23:31:08.368Z,9.53
2018-04-14T23:33:36.640Z,13.70
2018-04-14T23:36:04.908Z,5.07
2018-04-14T23:38:33.147Z,6.90
2018-04-14T23:41:01.402Z,7.53
2018-04-14T23:43:29.857Z,13.37
2018-04-14T23:45:58.093Z,4.97
2018-04-14T23:48:26.335Z,9.47
2018-04-14T23:50:54.660Z,4.20
2018-04-14T23:53:24.691Z,4.67
2018-04-14T23:55:52.964Z,7.97
2018-04-14T23:58:21.237Z,4.83
